sensor_id;sensor_type;location;lat;lon;timestamp;temperature;humidity
64924;HTU21D;51436;44.692;39.214;2022-08-21T00:00:10;24.32;75.89
64924;HTU21D;51436;44.692;39.214;2022-08-21T00:02:49;24.31;75.87
64924;HTU21D;51436;44.692;39.214;2022-08-21T00:05:16;24.30;75.85
64924;HTU21D;51436;44.692;39.214;2022-08-21T00:07:42;24.26;75.95
64924;HTU21D;51436;44.692;39.214;2022-08-21T00:10:09;24.27;75.87
64924;HTU21D;51436;44.692;39.214;2022-08-21T00:12:36;24.23;76.00
64924;HTU21D;51436;44.692;39.214;2022-08-21T00:15:06;24.20;76.01
64924;HTU21D;51436;44.692;39.214;2022-08-21T00:17:32;24.21;76.02
64924;HTU21D;51436;44.692;39.214;2022-08-21T00:19:59;24.21;75.98
64924;HTU21D;51436;44.692;39.214;2022-08-21T00:22:37;24.24;75.91
64924;HTU21D;51436;44.692;39.214;2022-08-21T00:25:05;24.24;75.87
64924;HTU21D;51436;44.692;39.214;2022-08-21T00:27:33;24.24;75.76
64924;HTU21D;51436;44.692;39.214;2022-08-21T00:29:59;24.17;75.86
64924;HTU21D;51436;44.692;39.214;2022-08-21T00:32:27;24.12;75.95
64924;HTU21D;51436;44.692;39.214;2022-08-21T00:34:54;24.04;76.11
64924;HTU21D;51436;44.692;39.214;2022-08-21T00:37:21;24.02;76.31
64924;HTU21D;51436;44.692;39.214;2022-08-21T00:39:47;24.04;76.26
64924;HTU21D;51436;44.692;39.214;2022-08-21T00:42:15;24.09;76.18
64924;HTU21D;51436;44.692;39.214;2022-08-21T00:44:45;24.11;76.08
64924;HTU21D;51436;44.692;39.214;2022-08-21T00:47:12;24.14;75.99
64924;HTU21D;51436;44.692;39.214;2022-08-21T00:49:39;24.16;75.89
64924;HTU21D;51436;44.692;39.214;2022-08-21T00:52:10;24.14;75.93
64924;HTU21D;51436;44.692;39.214;2022-08-21T00:54:39;24.13;75.95
64924;HTU21D;51436;44.692;39.214;2022-08-21T00:57:30;24.11;75.88
64924;HTU21D;51436;44.692;39.214;2022-08-21T01:00:00;24.08;76.02
64924;HTU21D;51436;44.692;39.214;2022-08-21T01:02:27;24.09;76.08
64924;HTU21D;51436;44.692;39.214;2022-08-21T01:04:54;24.08;76.15
64924;HTU21D;51436;44.692;39.214;2022-08-21T01:07:20;24.05;76.20
64924;HTU21D;51436;44.692;39.214;2022-08-21T01:09:47;24.05;76.18
64924;HTU21D;51436;44.692;39.214;2022-08-21T01:12:14;24.01;76.28
64924;HTU21D;51436;44.692;39.214;2022-08-21T01:14:41;24.00;76.30
64924;HTU21D;51436;44.692;39.214;2022-08-21T01:17:14;23.99;76.32
64924;HTU21D;51436;44.692;39.214;2022-08-21T01:19:42;23.98;76.33
64924;HTU21D;51436;44.692;39.214;2022-08-21T01:22:08;24.01;76.24
64924;HTU21D;51436;44.692;39.214;2022-08-21T01:24:35;24.01;76.21
64924;HTU21D;51436;44.692;39.214;2022-08-21T01:27:02;24.00;76.18
64924;HTU21D;51436;44.692;39.214;2022-08-21T01:29:46;23.97;76.13
64924;HTU21D;51436;44.692;39.214;2022-08-21T01:32:17;23.96;76.21
64924;HTU21D;51436;44.692;39.214;2022-08-21T01:34:45;23.94;76.28
64924;HTU21D;51436;44.692;39.214;2022-08-21T01:37:21;23.92;76.21
64924;HTU21D;51436;44.692;39.214;2022-08-21T01:39:48;23.95;76.19
64924;HTU21D;51436;44.692;39.214;2022-08-21T01:42:15;23.95;76.18
64924;HTU21D;51436;44.692;39.214;2022-08-21T01:44:41;23.95;76.09
64924;HTU21D;51436;44.692;39.214;2022-08-21T01:47:10;23.95;76.10
64924;HTU21D;51436;44.692;39.214;2022-08-21T01:49:37;23.98;76.04
64924;HTU21D;51436;44.692;39.214;2022-08-21T01:52:04;24.00;75.99
64924;HTU21D;51436;44.692;39.214;2022-08-21T01:54:31;23.99;75.92
64924;HTU21D;51436;44.692;39.214;2022-08-21T01:56:58;23.92;76.09
64924;HTU21D;51436;44.692;39.214;2022-08-21T01:59:25;23.84;76.24
64924;HTU21D;51436;44.692;39.214;2022-08-21T02:01:52;23.79;76.45
64924;HTU21D;51436;44.692;39.214;2022-08-21T02:04:20;23.77;76.54
64924;HTU21D;51436;44.692;39.214;2022-08-21T02:06:47;23.81;76.55
64924;HTU21D;51436;44.692;39.214;2022-08-21T02:09:14;23.83;76.47
64924;HTU21D;51436;44.692;39.214;2022-08-21T02:11:42;23.88;76.40
64924;HTU21D;51436;44.692;39.214;2022-08-21T02:14:09;23.91;76.26
64924;HTU21D;51436;44.692;39.214;2022-08-21T02:16:38;23.92;76.18
64924;HTU21D;51436;44.692;39.214;2022-08-21T02:19:05;23.91;76.24
64924;HTU21D;51436;44.692;39.214;2022-08-21T02:21:31;23.91;76.26
64924;HTU21D;51436;44.692;39.214;2022-08-21T02:23:58;23.89;76.23
64924;HTU21D;51436;44.692;39.214;2022-08-21T02:26:24;23.86;76.28
64924;HTU21D;51436;44.692;39.214;2022-08-21T02:28:51;23.82;76.31
64924;HTU21D;51436;44.692;39.214;2022-08-21T02:31:18;23.76;76.42
64924;HTU21D;51436;44.692;39.214;2022-08-21T02:33:44;23.56;76.93
64924;HTU21D;51436;44.692;39.214;2022-08-21T02:36:11;23.37;77.56
64924;HTU21D;51436;44.692;39.214;2022-08-21T02:38:39;23.23;77.99
64924;HTU21D;51436;44.692;39.214;2022-08-21T02:41:09;23.23;78.05
64924;HTU21D;51436;44.692;39.214;2022-08-21T02:43:35;23.26;77.98
64924;HTU21D;51436;44.692;39.214;2022-08-21T02:46:03;23.32;77.87
64924;HTU21D;51436;44.692;39.214;2022-08-21T02:48:31;23.39;77.76
64924;HTU21D;51436;44.692;39.214;2022-08-21T02:51:11;23.43;77.58
64924;HTU21D;51436;44.692;39.214;2022-08-21T02:53:38;23.49;77.57
64924;HTU21D;51436;44.692;39.214;2022-08-21T02:56:06;23.53;77.54
64924;HTU21D;51436;44.692;39.214;2022-08-21T02:58:38;23.53;77.48
64924;HTU21D;51436;44.692;39.214;2022-08-21T03:01:06;23.54;77.48
64924;HTU21D;51436;44.692;39.214;2022-08-21T03:03:37;23.56;77.49
64924;HTU21D;51436;44.692;39.214;2022-08-21T03:06:06;23.57;77.56
64924;HTU21D;51436;44.692;39.214;2022-08-21T03:08:37;23.64;77.40
64924;HTU21D;51436;44.692;39.214;2022-08-21T03:11:04;23.61;77.54
64924;HTU21D;51436;44.692;39.214;2022-08-21T03:13:31;23.57;77.69
64924;HTU21D;51436;44.692;39.214;2022-08-21T03:15:58;23.61;77.63
64924;HTU21D;51436;44.692;39.214;2022-08-21T03:18:25;23.64;77.59
64924;HTU21D;51436;44.692;39.214;2022-08-21T03:20:51;23.62;77.63
64924;HTU21D;51436;44.692;39.214;2022-08-21T03:23:18;23.66;77.62
64924;HTU21D;51436;44.692;39.214;2022-08-21T03:25:57;23.69;77.47
64924;HTU21D;51436;44.692;39.214;2022-08-21T03:28:24;23.70;77.46
64924;HTU21D;51436;44.692;39.214;2022-08-21T03:30:51;23.73;77.38
64924;HTU21D;51436;44.692;39.214;2022-08-21T03:33:18;23.79;77.27
64924;HTU21D;51436;44.692;39.214;2022-08-21T03:35:49;23.83;77.11
64924;HTU21D;51436;44.692;39.214;2022-08-21T03:38:17;23.84;77.07
64924;HTU21D;51436;44.692;39.214;2022-08-21T03:40:43;23.84;77.08
64924;HTU21D;51436;44.692;39.214;2022-08-21T03:43:10;23.86;77.08
64924;HTU21D;51436;44.692;39.214;2022-08-21T03:45:37;23.88;77.00
64924;HTU21D;51436;44.692;39.214;2022-08-21T03:48:06;23.92;76.93
64924;HTU21D;51436;44.692;39.214;2022-08-21T03:50:35;23.95;76.87
64924;HTU21D;51436;44.692;39.214;2022-08-21T03:53:02;23.98;76.86
64924;HTU21D;51436;44.692;39.214;2022-08-21T03:55:29;24.06;76.73
64924;HTU21D;51436;44.692;39.214;2022-08-21T03:57:55;24.19;76.34
64924;HTU21D;51436;44.692;39.214;2022-08-21T04:00:22;24.34;75.99
64924;HTU21D;51436;44.692;39.214;2022-08-21T04:02:48;24.47;75.63
64924;HTU21D;51436;44.692;39.214;2022-08-21T04:05:15;24.60;75.49
64924;HTU21D;51436;44.692;39.214;2022-08-21T04:07:57;24.75;75.12
64924;HTU21D;51436;44.692;39.214;2022-08-21T04:10:26;24.89;74.80
64924;HTU21D;51436;44.692;39.214;2022-08-21T04:12:54;24.99;74.71
64924;HTU21D;51436;44.692;39.214;2022-08-21T04:15:22;25.08;74.51
64924;HTU21D;51436;44.692;39.214;2022-08-21T04:17:49;25.22;74.20
64924;HTU21D;51436;44.692;39.214;2022-08-21T04:20:16;25.29;74.01
64924;HTU21D;51436;44.692;39.214;2022-08-21T04:22:55;25.33;74.09
64924;HTU21D;51436;44.692;39.214;2022-08-21T04:25:23;25.47;73.80
64924;HTU21D;51436;44.692;39.214;2022-08-21T04:27:51;25.53;73.51
64924;HTU21D;51436;44.692;39.214;2022-08-21T04:30:18;25.48;73.70
64924;HTU21D;51436;44.692;39.214;2022-08-21T04:32:49;25.46;73.94
64924;HTU21D;51436;44.692;39.214;2022-08-21T04:35:20;25.46;73.96
64924;HTU21D;51436;44.692;39.214;2022-08-21T04:37:47;25.45;74.01
64924;HTU21D;51436;44.692;39.214;2022-08-21T04:40:15;25.37;74.18
64924;HTU21D;51436;44.692;39.214;2022-08-21T04:43:04;25.30;74.37
64924;HTU21D;51436;44.692;39.214;2022-08-21T04:45:33;25.38;74.37
64924;HTU21D;51436;44.692;39.214;2022-08-21T04:48:03;25.50;74.02
64924;HTU21D;51436;44.692;39.214;2022-08-21T04:50:43;25.58;73.86
64924;HTU21D;51436;44.692;39.214;2022-08-21T04:53:15;25.60;73.85
64924;HTU21D;51436;44.692;39.214;2022-08-21T04:58:46;25.35;74.35
64924;HTU21D;51436;44.692;39.214;2022-08-21T05:01:17;25.36;74.54
64924;HTU21D;51436;44.692;39.214;2022-08-21T05:03:47;25.43;74.35
64924;HTU21D;51436;44.692;39.214;2022-08-21T05:06:15;25.51;74.21
64924;HTU21D;51436;44.692;39.214;2022-08-21T05:08:44;25.60;74.02
64924;HTU21D;51436;44.692;39.214;2022-08-21T05:11:11;25.68;73.85
64924;HTU21D;51436;44.692;39.214;2022-08-21T05:13:39;25.78;73.76
64924;HTU21D;51436;44.692;39.214;2022-08-21T05:16:06;25.91;73.49
64924;HTU21D;51436;44.692;39.214;2022-08-21T05:18:33;25.98;73.33
64924;HTU21D;51436;44.692;39.214;2022-08-21T05:20:59;26.02;73.24
64924;HTU21D;51436;44.692;39.214;2022-08-21T05:23:26;26.05;73.28
64924;HTU21D;51436;44.692;39.214;2022-08-21T05:25:53;26.12;73.25
64924;HTU21D;51436;44.692;39.214;2022-08-21T05:28:19;26.26;72.97
64924;HTU21D;51436;44.692;39.214;2022-08-21T05:30:46;26.37;72.72
64924;HTU21D;51436;44.692;39.214;2022-08-21T05:33:13;26.45;72.45
64924;HTU21D;51436;44.692;39.214;2022-08-21T05:35:39;26.52;72.22
64924;HTU21D;51436;44.692;39.214;2022-08-21T05:38:05;26.57;72.17
64924;HTU21D;51436;44.692;39.214;2022-08-21T05:40:32;26.64;72.00
64924;HTU21D;51436;44.692;39.214;2022-08-21T05:42:59;26.69;71.96
64924;HTU21D;51436;44.692;39.214;2022-08-21T05:45:31;26.75;71.84
64924;HTU21D;51436;44.692;39.214;2022-08-21T05:48:26;26.79;71.90
64924;HTU21D;51436;44.692;39.214;2022-08-21T05:50:51;26.84;71.77
64924;HTU21D;51436;44.692;39.214;2022-08-21T05:53:19;26.93;71.61
64924;HTU21D;51436;44.692;39.214;2022-08-21T05:55:46;27.01;71.51
64924;HTU21D;51436;44.692;39.214;2022-08-21T05:58:18;27.04;71.57
64924;HTU21D;51436;44.692;39.214;2022-08-21T06:00:46;27.07;71.59
64924;HTU21D;51436;44.692;39.214;2022-08-21T06:03:18;27.02;71.84
64924;HTU21D;51436;44.692;39.214;2022-08-21T06:05:45;27.08;71.71
64924;HTU21D;51436;44.692;39.214;2022-08-21T06:08:12;27.21;71.44
64924;HTU21D;51436;44.692;39.214;2022-08-21T06:10:38;27.27;71.31
64924;HTU21D;51436;44.692;39.214;2022-08-21T06:13:05;27.35;70.97
64924;HTU21D;51436;44.692;39.214;2022-08-21T06:15:31;27.46;71.03
64924;HTU21D;51436;44.692;39.214;2022-08-21T06:17:57;27.63;70.31
64924;HTU21D;51436;44.692;39.214;2022-08-21T06:20:24;27.72;70.14
64924;HTU21D;51436;44.692;39.214;2022-08-21T06:22:50;27.81;69.97
64924;HTU21D;51436;44.692;39.214;2022-08-21T06:25:16;27.88;69.64
64924;HTU21D;51436;44.692;39.214;2022-08-21T06:28:06;27.88;69.49
64924;HTU21D;51436;44.692;39.214;2022-08-21T06:30:34;27.93;69.42
64924;HTU21D;51436;44.692;39.214;2022-08-21T06:33:00;27.98;69.40
64924;HTU21D;51436;44.692;39.214;2022-08-21T06:35:28;27.97;69.47
64924;HTU21D;51436;44.692;39.214;2022-08-21T06:37:55;27.96;69.42
64924;HTU21D;51436;44.692;39.214;2022-08-21T06:40:22;27.93;69.58
64924;HTU21D;51436;44.692;39.214;2022-08-21T06:42:49;28.02;69.49
64924;HTU21D;51436;44.692;39.214;2022-08-21T06:45:15;28.10;68.97
64924;HTU21D;51436;44.692;39.214;2022-08-21T06:47:42;28.16;68.68
64924;HTU21D;51436;44.692;39.214;2022-08-21T06:50:09;28.19;68.56
64924;HTU21D;51436;44.692;39.214;2022-08-21T06:52:38;28.28;68.28
64924;HTU21D;51436;44.692;39.214;2022-08-21T06:55:07;28.38;67.45
64924;HTU21D;51436;44.692;39.214;2022-08-21T06:57:34;28.45;67.01
64924;HTU21D;51436;44.692;39.214;2022-08-21T07:00:03;28.54;66.59
64924;HTU21D;51436;44.692;39.214;2022-08-21T07:02:31;28.55;66.24
64924;HTU21D;51436;44.692;39.214;2022-08-21T07:04:59;28.53;65.93
64924;HTU21D;51436;44.692;39.214;2022-08-21T07:07:25;28.55;65.94
64924;HTU21D;51436;44.692;39.214;2022-08-21T07:10:10;28.57;65.95
64924;HTU21D;51436;44.692;39.214;2022-08-21T07:12:36;28.64;65.82
64924;HTU21D;51436;44.692;39.214;2022-08-21T07:15:04;28.73;65.82
64924;HTU21D;51436;44.692;39.214;2022-08-21T07:17:30;28.83;65.68
64924;HTU21D;51436;44.692;39.214;2022-08-21T07:19:57;28.83;65.79
64924;HTU21D;51436;44.692;39.214;2022-08-21T07:22:24;28.86;65.75
64924;HTU21D;51436;44.692;39.214;2022-08-21T07:24:50;28.85;65.70
64924;HTU21D;51436;44.692;39.214;2022-08-21T07:27:16;28.90;65.52
64924;HTU21D;51436;44.692;39.214;2022-08-21T07:29:43;28.99;65.28
64924;HTU21D;51436;44.692;39.214;2022-08-21T07:32:09;29.07;65.31
64924;HTU21D;51436;44.692;39.214;2022-08-21T07:34:35;29.13;64.79
64924;HTU21D;51436;44.692;39.214;2022-08-21T07:37:02;29.15;64.85
64924;HTU21D;51436;44.692;39.214;2022-08-21T07:39:28;29.16;64.98
64924;HTU21D;51436;44.692;39.214;2022-08-21T07:41:54;29.22;64.72
64924;HTU21D;51436;44.692;39.214;2022-08-21T07:44:21;29.27;64.82
64924;HTU21D;51436;44.692;39.214;2022-08-21T07:46:47;29.35;64.50
64924;HTU21D;51436;44.692;39.214;2022-08-21T07:49:13;29.39;64.27
64924;HTU21D;51436;44.692;39.214;2022-08-21T07:51:40;29.46;64.25
64924;HTU21D;51436;44.692;39.214;2022-08-21T07:54:06;29.50;64.33
64924;HTU21D;51436;44.692;39.214;2022-08-21T07:56:34;29.53;64.19
64924;HTU21D;51436;44.692;39.214;2022-08-21T07:59:00;29.56;64.21
64924;HTU21D;51436;44.692;39.214;2022-08-21T08:01:29;29.60;64.07
64924;HTU21D;51436;44.692;39.214;2022-08-21T08:03:55;29.64;63.24
64924;HTU21D;51436;44.692;39.214;2022-08-21T08:06:22;29.65;63.45
64924;HTU21D;51436;44.692;39.214;2022-08-21T08:08:48;29.68;63.40
64924;HTU21D;51436;44.692;39.214;2022-08-21T08:11:15;29.75;63.15
64924;HTU21D;51436;44.692;39.214;2022-08-21T08:14:00;29.68;63.47
64924;HTU21D;51436;44.692;39.214;2022-08-21T08:16:29;29.63;63.44
64924;HTU21D;51436;44.692;39.214;2022-08-21T08:18:56;29.64;63.34
64924;HTU21D;51436;44.692;39.214;2022-08-21T08:21:22;29.64;63.49
64924;HTU21D;51436;44.692;39.214;2022-08-21T08:23:48;29.71;63.09
64924;HTU21D;51436;44.692;39.214;2022-08-21T08:26:15;29.75;62.88
64924;HTU21D;51436;44.692;39.214;2022-08-21T08:28:41;29.79;63.02
64924;HTU21D;51436;44.692;39.214;2022-08-21T08:31:08;29.79;62.74
64924;HTU21D;51436;44.692;39.214;2022-08-21T08:33:34;29.86;62.38
64924;HTU21D;51436;44.692;39.214;2022-08-21T08:36:00;29.89;61.86
64924;HTU21D;51436;44.692;39.214;2022-08-21T08:38:26;29.89;61.80
64924;HTU21D;51436;44.692;39.214;2022-08-21T08:43:30;29.93;61.58
64924;HTU21D;51436;44.692;39.214;2022-08-21T08:46:01;30.03;61.66
64924;HTU21D;51436;44.692;39.214;2022-08-21T08:48:36;30.06;61.02
64924;HTU21D;51436;44.692;39.214;2022-08-21T08:51:08;30.07;60.86
64924;HTU21D;51436;44.692;39.214;2022-08-21T08:53:49;30.10;61.00
64924;HTU21D;51436;44.692;39.214;2022-08-21T08:56:20;30.18;60.65
64924;HTU21D;51436;44.692;39.214;2022-08-21T08:58:50;30.21;60.76
64924;HTU21D;51436;44.692;39.214;2022-08-21T09:01:20;30.24;60.20
64924;HTU21D;51436;44.692;39.214;2022-08-21T09:03:47;30.27;59.67
64924;HTU21D;51436;44.692;39.214;2022-08-21T09:07:07;30.30;59.80
64924;HTU21D;51436;44.692;39.214;2022-08-21T09:13:00;30.32;59.32
64924;HTU21D;51436;44.692;39.214;2022-08-21T09:15:53;30.38;58.97
64924;HTU21D;51436;44.692;39.214;2022-08-21T09:21:48;30.44;58.81
64924;HTU21D;51436;44.692;39.214;2022-08-21T09:27:02;30.56;57.95
64924;HTU21D;51436;44.692;39.214;2022-08-21T09:29:33;30.57;57.26
64924;HTU21D;51436;44.692;39.214;2022-08-21T09:32:00;30.53;57.19
64924;HTU21D;51436;44.692;39.214;2022-08-21T09:34:30;30.57;57.13
64924;HTU21D;51436;44.692;39.214;2022-08-21T09:36:57;30.63;56.93
64924;HTU21D;51436;44.692;39.214;2022-08-21T09:39:29;30.67;56.61
64924;HTU21D;51436;44.692;39.214;2022-08-21T09:42:02;30.71;56.88
64924;HTU21D;51436;44.692;39.214;2022-08-21T09:44:31;30.75;56.82
64924;HTU21D;51436;44.692;39.214;2022-08-21T09:46:58;30.76;56.57
64924;HTU21D;51436;44.692;39.214;2022-08-21T09:49:33;30.80;56.39
64924;HTU21D;51436;44.692;39.214;2022-08-21T09:52:02;30.81;56.21
64924;HTU21D;51436;44.692;39.214;2022-08-21T09:54:34;30.85;56.13
64924;HTU21D;51436;44.692;39.214;2022-08-21T09:59:55;30.87;55.44
64924;HTU21D;51436;44.692;39.214;2022-08-21T10:05:06;30.93;55.10
64924;HTU21D;51436;44.692;39.214;2022-08-21T10:07:37;30.96;55.02
64924;HTU21D;51436;44.692;39.214;2022-08-21T10:10:14;30.98;55.04
64924;HTU21D;51436;44.692;39.214;2022-08-21T10:12:54;31.02;54.82
64924;HTU21D;51436;44.692;39.214;2022-08-21T10:18:35;31.10;54.25
64924;HTU21D;51436;44.692;39.214;2022-08-21T10:21:23;31.12;53.81
64924;HTU21D;51436;44.692;39.214;2022-08-21T10:24:14;31.14;53.40
64924;HTU21D;51436;44.692;39.214;2022-08-21T10:34:47;31.28;51.96
64924;HTU21D;51436;44.692;39.214;2022-08-21T10:41:09;31.28;52.20
64924;HTU21D;51436;44.692;39.214;2022-08-21T10:46:13;31.36;52.07
64924;HTU21D;51436;44.692;39.214;2022-08-21T10:56:51;31.46;52.11
64924;HTU21D;51436;44.692;39.214;2022-08-21T10:59:43;31.48;52.01
64924;HTU21D;51436;44.692;39.214;2022-08-21T11:02:37;31.46;52.35
64924;HTU21D;51436;44.692;39.214;2022-08-21T11:05:15;31.48;52.44
64924;HTU21D;51436;44.692;39.214;2022-08-21T11:08:08;31.48;52.53
64924;HTU21D;51436;44.692;39.214;2022-08-21T11:10:44;31.49;52.62
64924;HTU21D;51436;44.692;39.214;2022-08-21T11:13:17;31.45;52.46
64924;HTU21D;51436;44.692;39.214;2022-08-21T11:16:10;31.48;52.41
64924;HTU21D;51436;44.692;39.214;2022-08-21T11:18:41;31.50;52.35
64924;HTU21D;51436;44.692;39.214;2022-08-21T11:23:55;31.55;52.46
64924;HTU21D;51436;44.692;39.214;2022-08-21T11:26:41;31.59;52.60
64924;HTU21D;51436;44.692;39.214;2022-08-21T11:29:13;31.58;52.44
64924;HTU21D;51436;44.692;39.214;2022-08-21T11:32:24;31.64;52.79
64924;HTU21D;51436;44.692;39.214;2022-08-21T11:38:01;31.71;52.53
64924;HTU21D;51436;44.692;39.214;2022-08-21T11:43:43;31.71;51.98
64924;HTU21D;51436;44.692;39.214;2022-08-21T11:55:07;31.78;51.39
64924;HTU21D;51436;44.692;39.214;2022-08-21T11:57:35;31.78;51.04
64924;HTU21D;51436;44.692;39.214;2022-08-21T12:00:16;31.76;51.02
64924;HTU21D;51436;44.692;39.214;2022-08-21T12:02:48;31.74;51.18
64924;HTU21D;51436;44.692;39.214;2022-08-21T12:05:23;31.71;51.93
64924;HTU21D;51436;44.692;39.214;2022-08-21T12:08:02;31.78;51.66
64924;HTU21D;51436;44.692;39.214;2022-08-21T12:10:38;31.81;51.74
64924;HTU21D;51436;44.692;39.214;2022-08-21T12:13:29;31.81;51.80
64924;HTU21D;51436;44.692;39.214;2022-08-21T12:16:32;31.82;51.66
64924;HTU21D;51436;44.692;39.214;2022-08-21T12:21:52;31.85;51.77
64924;HTU21D;51436;44.692;39.214;2022-08-21T12:24:38;31.85;51.87
64924;HTU21D;51436;44.692;39.214;2022-08-21T12:29:48;31.90;51.34
64924;HTU21D;51436;44.692;39.214;2022-08-21T12:37:34;31.95;50.90
64924;HTU21D;51436;44.692;39.214;2022-08-21T12:42:58;31.94;50.59
64924;HTU21D;51436;44.692;39.214;2022-08-21T12:45:32;31.96;50.72
64924;HTU21D;51436;44.692;39.214;2022-08-21T12:48:25;31.97;50.43
64924;HTU21D;51436;44.692;39.214;2022-08-21T12:50:52;31.95;50.63
64924;HTU21D;51436;44.692;39.214;2022-08-21T12:53:33;31.92;50.57
64924;HTU21D;51436;44.692;39.214;2022-08-21T12:56:03;31.94;51.16
64924;HTU21D;51436;44.692;39.214;2022-08-21T12:58:30;31.99;50.47
64924;HTU21D;51436;44.692;39.214;2022-08-21T13:03:52;31.94;50.42
64924;HTU21D;51436;44.692;39.214;2022-08-21T13:06:21;31.92;50.46
64924;HTU21D;51436;44.692;39.214;2022-08-21T13:08:55;31.96;50.31
64924;HTU21D;51436;44.692;39.214;2022-08-21T13:11:23;31.98;50.11
64924;HTU21D;51436;44.692;39.214;2022-08-21T13:13:51;32.01;50.20
64924;HTU21D;51436;44.692;39.214;2022-08-21T13:16:24;32.08;49.85
64924;HTU21D;51436;44.692;39.214;2022-08-21T13:18:58;32.08;50.07
64924;HTU21D;51436;44.692;39.214;2022-08-21T13:21:51;32.03;50.29
64924;HTU21D;51436;44.692;39.214;2022-08-21T13:24:33;31.94;50.00
64924;HTU21D;51436;44.692;39.214;2022-08-21T13:27:00;31.89;50.02
64924;HTU21D;51436;44.692;39.214;2022-08-21T13:29:32;31.89;50.08
64924;HTU21D;51436;44.692;39.214;2022-08-21T13:32:04;31.92;49.78
64924;HTU21D;51436;44.692;39.214;2022-08-21T13:34:37;31.93;49.88
64924;HTU21D;51436;44.692;39.214;2022-08-21T13:37:07;31.83;49.89
64924;HTU21D;51436;44.692;39.214;2022-08-21T13:39:34;31.70;50.11
64924;HTU21D;51436;44.692;39.214;2022-08-21T13:42:02;31.64;50.05
64924;HTU21D;51436;44.692;39.214;2022-08-21T13:44:41;31.67;50.40
64924;HTU21D;51436;44.692;39.214;2022-08-21T13:47:11;31.71;50.38
64924;HTU21D;51436;44.692;39.214;2022-08-21T13:49:44;31.75;50.31
64924;HTU21D;51436;44.692;39.214;2022-08-21T13:52:23;31.80;50.32
64924;HTU21D;51436;44.692;39.214;2022-08-21T13:54:57;31.73;50.53
64924;HTU21D;51436;44.692;39.214;2022-08-21T13:57:29;31.64;51.24
64924;HTU21D;51436;44.692;39.214;2022-08-21T14:02:46;31.40;51.95
64924;HTU21D;51436;44.692;39.214;2022-08-21T14:05:25;31.37;51.97
64924;HTU21D;51436;44.692;39.214;2022-08-21T14:08:13;31.38;51.79
64924;HTU21D;51436;44.692;39.214;2022-08-21T14:10:43;31.38;51.84
64924;HTU21D;51436;44.692;39.214;2022-08-21T14:13:41;31.40;51.84
64924;HTU21D;51436;44.692;39.214;2022-08-21T14:16:18;31.41;51.91
64924;HTU21D;51436;44.692;39.214;2022-08-21T14:18:54;31.42;51.71
64924;HTU21D;51436;44.692;39.214;2022-08-21T14:21:39;31.43;51.53
64924;HTU21D;51436;44.692;39.214;2022-08-21T14:24:27;31.44;51.80
64924;HTU21D;51436;44.692;39.214;2022-08-21T14:27:03;31.43;51.59
64924;HTU21D;51436;44.692;39.214;2022-08-21T14:29:37;31.37;51.54
64924;HTU21D;51436;44.692;39.214;2022-08-21T14:32:15;31.34;51.47
64924;HTU21D;51436;44.692;39.214;2022-08-21T14:34:42;31.30;51.42
64924;HTU21D;51436;44.692;39.214;2022-08-21T14:37:08;31.29;51.45
64924;HTU21D;51436;44.692;39.214;2022-08-21T14:39:37;31.26;51.61
64924;HTU21D;51436;44.692;39.214;2022-08-21T14:42:04;31.25;51.69
64924;HTU21D;51436;44.692;39.214;2022-08-21T14:44:30;31.21;51.91
64924;HTU21D;51436;44.692;39.214;2022-08-21T14:46:58;31.18;52.17
64924;HTU21D;51436;44.692;39.214;2022-08-21T14:49:26;31.12;52.28
64924;HTU21D;51436;44.692;39.214;2022-08-21T14:51:57;31.09;52.65
64924;HTU21D;51436;44.692;39.214;2022-08-21T14:54:25;31.04;53.01
64924;HTU21D;51436;44.692;39.214;2022-08-21T14:56:52;30.99;53.24
64924;HTU21D;51436;44.692;39.214;2022-08-21T14:59:20;30.91;53.48
64924;HTU21D;51436;44.692;39.214;2022-08-21T15:01:46;30.84;53.76
64924;HTU21D;51436;44.692;39.214;2022-08-21T15:04:13;30.79;53.92
64924;HTU21D;51436;44.692;39.214;2022-08-21T15:06:39;30.74;54.17
64924;HTU21D;51436;44.692;39.214;2022-08-21T15:09:06;30.67;54.38
64924;HTU21D;51436;44.692;39.214;2022-08-21T15:11:35;30.61;54.65
64924;HTU21D;51436;44.692;39.214;2022-08-21T15:14:06;30.53;54.78
64924;HTU21D;51436;44.692;39.214;2022-08-21T15:16:34;30.48;55.16
64924;HTU21D;51436;44.692;39.214;2022-08-21T15:19:00;30.41;55.44
64924;HTU21D;51436;44.692;39.214;2022-08-21T15:21:27;30.36;55.70
64924;HTU21D;51436;44.692;39.214;2022-08-21T15:23:53;30.31;56.03
64924;HTU21D;51436;44.692;39.214;2022-08-21T15:26:22;30.26;56.74
64924;HTU21D;51436;44.692;39.214;2022-08-21T15:28:48;30.22;57.30
64924;HTU21D;51436;44.692;39.214;2022-08-21T15:31:15;30.16;57.70
64924;HTU21D;51436;44.692;39.214;2022-08-21T15:33:41;30.10;58.57
64924;HTU21D;51436;44.692;39.214;2022-08-21T15:36:08;30.02;59.16
64924;HTU21D;51436;44.692;39.214;2022-08-21T15:38:34;29.94;59.52
64924;HTU21D;51436;44.692;39.214;2022-08-21T15:41:02;29.86;60.11
64924;HTU21D;51436;44.692;39.214;2022-08-21T15:43:41;29.78;60.32
64924;HTU21D;51436;44.692;39.214;2022-08-21T15:46:11;29.74;60.85
64924;HTU21D;51436;44.692;39.214;2022-08-21T15:48:38;29.67;61.53
64924;HTU21D;51436;44.692;39.214;2022-08-21T15:51:04;29.62;61.86
64924;HTU21D;51436;44.692;39.214;2022-08-21T15:53:31;29.52;62.44
64924;HTU21D;51436;44.692;39.214;2022-08-21T15:56:13;29.44;63.11
64924;HTU21D;51436;44.692;39.214;2022-08-21T15:58:40;29.32;63.63
64924;HTU21D;51436;44.692;39.214;2022-08-21T16:01:06;29.26;64.08
64924;HTU21D;51436;44.692;39.214;2022-08-21T16:03:33;29.19;64.50
64924;HTU21D;51436;44.692;39.214;2022-08-21T16:05:59;29.12;64.91
64924;HTU21D;51436;44.692;39.214;2022-08-21T16:08:26;29.05;65.28
64924;HTU21D;51436;44.692;39.214;2022-08-21T16:10:52;28.99;65.71
64924;HTU21D;51436;44.692;39.214;2022-08-21T16:13:29;28.89;65.75
64924;HTU21D;51436;44.692;39.214;2022-08-21T16:15:59;28.79;66.33
64924;HTU21D;51436;44.692;39.214;2022-08-21T16:18:26;28.73;66.56
64924;HTU21D;51436;44.692;39.214;2022-08-21T16:20:52;28.67;66.75
64924;HTU21D;51436;44.692;39.214;2022-08-21T16:23:19;28.59;67.03
64924;HTU21D;51436;44.692;39.214;2022-08-21T16:25:46;28.53;67.25
64924;HTU21D;51436;44.692;39.214;2022-08-21T16:28:15;28.49;67.14
64924;HTU21D;51436;44.692;39.214;2022-08-21T16:30:45;28.44;67.40
64924;HTU21D;51436;44.692;39.214;2022-08-21T16:33:32;28.40;67.34
64924;HTU21D;51436;44.692;39.214;2022-08-21T16:36:00;28.33;67.91
64924;HTU21D;51436;44.692;39.214;2022-08-21T16:38:27;28.29;67.82
64924;HTU21D;51436;44.692;39.214;2022-08-21T16:40:54;28.24;67.78
64924;HTU21D;51436;44.692;39.214;2022-08-21T16:43:26;28.18;67.67
64924;HTU21D;51436;44.692;39.214;2022-08-21T16:45:55;28.12;67.84